createdAt,value
2023-05-11T00:03:42.281Z,999.73
2023-05-11T00:08:42.186Z,999.83
2023-05-11T00:13:42.100Z,999.81
2023-05-11T00:18:42.088Z,999.81
2023-05-11T00:23:41.961Z,999.74
2023-05-11T00:28:41.898Z,999.79
2023-05-11T00:33:41.813Z,999.69
2023-05-11T00:38:41.776Z,999.68
2023-05-11T00:43:41.686Z,999.73
2023-05-11T00:48:41.622Z,999.66
2023-05-11T00:53:41.555Z,999.68
2023-05-11T00:58:41.488Z,999.76
2023-05-11T01:03:41.420Z,999.84
2023-05-11T01:08:41.380Z,999.72
2023-05-11T01:13:41.297Z,999.74
2023-05-11T01:18:41.286Z,999.77
2023-05-11T01:23:41.154Z,999.75
2023-05-11T01:28:41.117Z,999.80
2023-05-11T01:33:41.028Z,999.79
2023-05-11T01:38:40.969Z,999.77
2023-05-11T01:43:40.889Z,999.81
2023-05-11T01:48:40.843Z,999.76
2023-05-11T01:53:40.745Z,999.80
2023-05-11T01:58:40.679Z,999.80
2023-05-11T02:03:40.639Z,999.84
2023-05-11T02:08:40.544Z,999.78
2023-05-11T02:13:40.463Z,999.87
2023-05-11T02:18:40.521Z,999.81
2023-05-11T02:23:40.345Z,999.84
2023-05-11T02:28:40.278Z,999.84
2023-05-11T02:33:40.221Z,999.79
2023-05-11T02:38:40.136Z,999.82
2023-05-11T02:43:40.064Z,999.90
2023-05-11T02:48:40.028Z,999.88
2023-05-11T02:53:39.939Z,999.87
2023-05-11T02:58:39.869Z,999.87
2023-05-11T03:03:39.964Z,999.86
2023-05-11T03:08:39.737Z,999.82
2023-05-11T03:13:39.664Z,999.83
2023-05-11T03:18:39.619Z,999.84
2023-05-11T03:23:39.526Z,999.96
2023-05-11T03:28:39.486Z,999.81
2023-05-11T03:33:39.395Z,999.86
2023-05-11T03:38:39.323Z,999.99
2023-05-11T03:43:39.265Z,999.77
2023-05-11T03:48:39.207Z,999.82
2023-05-11T03:53:39.141Z,999.86
2023-05-11T03:58:39.075Z,999.86
2023-05-11T04:03:39.164Z,999.87
2023-05-11T04:08:38.933Z,999.82
2023-05-11T04:13:38.860Z,999.90
2023-05-11T04:18:38.870Z,999.85
2023-05-11T04:23:38.740Z,999.87
2023-05-11T04:28:38.664Z,999.89
2023-05-11T04:33:38.593Z,999.97
2023-05-11T04:38:38.531Z,999.93
2023-05-11T04:43:38.457Z,999.93
2023-05-11T04:48:38.390Z,1000.05
2023-05-11T04:53:38.328Z,1000.06
2023-05-11T04:58:38.265Z,1000.14
2023-05-11T05:03:38.332Z,1000.15
2023-05-11T05:08:38.134Z,1000.08
2023-05-11T05:13:38.068Z,1000.02
2023-05-11T05:18:38.018Z,999.99
2023-05-11T05:23:37.950Z,1000.09
2023-05-11T05:28:37.862Z,1000.10
2023-05-11T05:33:37.813Z,1000.16
2023-05-11T05:38:37.726Z,1000.27
2023-05-11T05:43:37.690Z,1000.32
2023-05-11T05:48:37.621Z,1000.35
2023-05-11T05:53:37.583Z,1000.38
2023-05-11T05:58:37.523Z,1000.40
2023-05-11T06:03:37.642Z,1000.25
2023-05-11T06:08:37.352Z,1000.32
2023-05-11T06:13:37.377Z,1000.29
2023-05-11T06:18:37.266Z,1000.35
2023-05-11T06:23:37.195Z,1000.28
2023-05-11T06:28:37.087Z,1000.17
2023-05-11T06:33:37.036Z,1000.15
2023-05-11T06:38:36.974Z,1000.17
2023-05-11T06:43:36.953Z,1000.17
2023-05-11T06:48:36.834Z,1000.18
2023-05-11T06:53:36.782Z,1000.11
2023-05-11T06:58:36.723Z,1000.14
2023-05-11T07:03:36.654Z,1000.09
2023-05-11T07:08:36.579Z,1000.09
2023-05-11T07:13:36.530Z,1000.16
2023-05-11T07:18:36.476Z,1000.09
2023-05-11T07:23:36.403Z,1000.13
2023-05-11T07:28:36.321Z,1000.21
2023-05-11T07:33:36.261Z,1000.20
2023-05-11T07:38:36.206Z,1000.21
2023-05-11T07:43:36.127Z,1000.31
2023-05-11T07:48:36.074Z,1000.30
2023-05-11T07:53:36.007Z,1000.15
2023-05-11T07:58:35.980Z,1000.29
2023-05-11T08:03:35.920Z,1000.30
2023-05-11T08:08:35.803Z,1000.32
2023-05-11T08:13:35.751Z,1000.33
2023-05-11T08:18:35.746Z,1000.27
2023-05-11T08:23:35.626Z,1000.25
2023-05-11T08:28:35.552Z,1000.23
2023-05-11T08:33:38.051Z,1000.20
2023-05-11T08:38:35.457Z,1000.07
2023-05-11T08:43:35.362Z,1000.23
2023-05-11T08:48:35.308Z,1000.20
2023-05-11T08:53:35.229Z,1000.12
2023-05-11T08:58:35.160Z,1000.21
2023-05-11T09:03:35.109Z,1000.23
2023-05-11T09:08:35.030Z,1000.13
2023-05-11T09:13:34.968Z,1000.12
2023-05-11T09:18:34.937Z,999.97
2023-05-11T09:23:34.853Z,1000.04
2023-05-11T09:28:36.143Z,1000.04
2023-05-11T09:33:34.719Z,999.93
2023-05-11T09:38:34.659Z,1000.05
2023-05-11T09:43:34.571Z,999.96
2023-05-11T09:48:34.545Z,999.98
2023-05-11T09:53:34.438Z,999.94
2023-05-11T09:58:34.373Z,1000.08
2023-05-11T10:03:34.413Z,999.94
2023-05-11T10:08:34.276Z,999.83
2023-05-11T10:13:34.176Z,999.98
2023-05-11T10:18:34.174Z,999.95
2023-05-11T10:23:34.049Z,999.98
2023-05-11T10:28:33.982Z,1000.05
2023-05-11T10:33:33.908Z,999.87
2023-05-11T10:38:33.847Z,999.87
2023-05-11T10:43:33.788Z,999.85
2023-05-11T10:48:33.702Z,999.98
2023-05-11T10:53:33.632Z,999.88
2023-05-11T10:58:33.575Z,999.97
2023-05-11T11:03:33.550Z,1000.00
2023-05-11T11:08:33.428Z,999.96
2023-05-11T11:13:33.391Z,1000.03
2023-05-11T11:18:33.471Z,999.95
2023-05-11T11:23:33.229Z,999.92
2023-05-11T11:28:33.171Z,999.78
2023-05-11T11:33:33.158Z,999.94
2023-05-11T11:38:33.032Z,999.89
2023-05-11T11:43:32.969Z,999.92
2023-05-11T11:48:32.929Z,999.90
2023-05-11T11:53:32.840Z,999.97
2023-05-11T11:58:32.772Z,1000.06
2023-05-11T12:03:32.785Z,1000.08
2023-05-11T12:08:32.649Z,1000.16
2023-05-11T12:13:32.559Z,1000.07
2023-05-11T12:18:32.576Z,1000.05
2023-05-11T12:23:32.442Z,1000.15
2023-05-11T12:28:32.354Z,1000.25
2023-05-11T12:33:32.362Z,1000.26
2023-05-11T12:38:32.216Z,1000.20
2023-05-11T12:43:32.159Z,1000.36
2023-05-11T12:48:32.104Z,1000.29
2023-05-11T12:53:32.057Z,1000.26
2023-05-11T12:58:31.956Z,1000.24
2023-05-11T13:03:32.189Z,1000.25
2023-05-11T13:08:31.846Z,1000.27
2023-05-11T13:13:31.826Z,1000.31
2023-05-11T13:18:31.720Z,1000.20
2023-05-11T13:23:31.635Z,1000.22
2023-05-11T13:28:31.555Z,1000.07
2023-05-11T13:33:31.504Z,1000.14
2023-05-11T13:38:31.426Z,1000.14
2023-05-11T13:43:31.378Z,1000.03
2023-05-11T13:48:31.297Z,1000.03
2023-05-11T13:53:31.239Z,999.97
2023-05-11T13:58:31.168Z,999.85
2023-05-11T14:03:31.169Z,999.81
2023-05-11T14:08:31.027Z,999.92
2023-05-11T14:13:30.972Z,999.86
2023-05-11T14:18:31.004Z,999.76
2023-05-11T14:23:30.845Z,999.74
2023-05-11T14:28:30.746Z,999.71
2023-05-11T14:33:30.689Z,999.59
2023-05-11T14:38:30.615Z,999.67
2023-05-11T14:43:30.552Z,999.64
2023-05-11T14:48:30.503Z,999.68
2023-05-11T14:53:30.451Z,999.62
2023-05-11T14:58:30.588Z,999.68
2023-05-11T15:03:30.313Z,999.71
2023-05-11T15:08:30.824Z,999.83
2023-05-11T15:13:30.175Z,999.77
2023-05-11T15:18:30.113Z,999.91
2023-05-11T15:23:30.032Z,999.91
2023-05-11T15:28:29.952Z,999.90
2023-05-11T15:33:29.945Z,999.90
2023-05-11T15:38:29.874Z,1000.11
2023-05-11T15:43:30.366Z,1000.03
2023-05-11T15:48:30.723Z,1000.10
2023-05-11T15:53:29.652Z,1000.07
2023-05-11T15:58:29.820Z,1000.11
2023-05-11T16:03:29.714Z,1000.12
2023-05-11T16:08:29.436Z,1000.06
2023-05-11T16:13:29.362Z,1000.10
2023-05-11T16:18:29.311Z,1000.12
2023-05-11T16:23:29.213Z,1000.20
2023-05-11T16:28:29.154Z,1000.16
2023-05-11T16:33:29.086Z,1000.09
2023-05-11T16:38:29.028Z,1000.19
2023-05-11T16:43:28.950Z,1000.15
2023-05-11T16:48:28.887Z,1000.16
2023-05-11T16:53:28.848Z,1000.18
2023-05-11T16:58:28.785Z,1000.33
2023-05-11T17:03:28.842Z,1000.33
2023-05-11T17:08:28.621Z,1000.36
2023-05-11T17:13:28.581Z,1000.39
2023-05-11T17:18:28.536Z,1000.39
2023-05-11T17:23:28.411Z,1000.40
2023-05-11T17:28:28.336Z,1000.38
2023-05-11T17:33:28.343Z,1000.35
2023-05-11T17:38:28.228Z,1000.43
2023-05-11T17:43:28.171Z,1000.46
2023-05-11T17:48:28.080Z,1000.49
2023-05-11T17:53:28.027Z,1000.70
2023-05-11T17:58:27.946Z,1000.80
2023-05-11T18:03:27.985Z,1000.72
2023-05-11T18:08:28.059Z,1000.80
2023-05-11T18:13:27.782Z,1000.94
2023-05-11T18:18:27.699Z,1000.94
2023-05-11T18:23:27.649Z,1001.01
2023-05-11T18:28:27.647Z,1001.02
2023-05-11T18:33:27.478Z,1001.12
2023-05-11T18:38:27.413Z,1001.09
2023-05-11T18:43:27.334Z,1001.14
2023-05-11T18:48:27.291Z,1001.26
2023-05-11T18:53:27.202Z,1001.28
2023-05-11T18:58:27.295Z,1001.34
2023-05-11T19:03:27.091Z,1001.32
2023-05-11T19:08:26.972Z,1001.39
2023-05-11T19:13:26.914Z,1001.52
2023-05-11T19:18:26.871Z,1001.55
2023-05-11T19:23:26.800Z,1001.71
2023-05-11T19:28:26.713Z,1001.70
2023-05-11T19:33:26.656Z,1001.69
2023-05-11T19:38:26.597Z,1001.72
2023-05-11T19:43:26.508Z,1001.75
2023-05-11T19:48:26.432Z,1001.75
2023-05-11T19:53:26.364Z,1001.77
2023-05-11T19:58:26.307Z,1001.78
2023-05-11T20:03:28.543Z,1001.82
2023-05-11T20:08:26.178Z,1001.89
2023-05-11T20:13:26.112Z,1001.86
2023-05-11T20:18:26.106Z,1001.78
2023-05-11T20:23:25.977Z,1001.86
2023-05-11T20:28:25.895Z,1001.73
2023-05-11T20:38:25.762Z,1001.89
2023-05-11T20:43:25.691Z,1001.79
2023-05-11T20:48:36.296Z,1001.77
2023-05-11T20:53:26.599Z,1001.84
2023-05-11T20:58:25.499Z,1001.82
2023-05-11T21:03:25.524Z,1001.80
2023-05-11T21:08:25.362Z,1001.73
2023-05-11T21:13:25.296Z,1001.85
2023-05-11T21:18:25.243Z,1001.80
2023-05-11T21:23:25.170Z,1001.75
2023-05-11T21:28:25.103Z,1001.78
2023-05-11T21:33:25.024Z,1001.75
2023-05-11T21:38:24.949Z,1001.84
2023-05-11T21:43:24.885Z,1001.83
2023-05-11T21:48:24.825Z,1001.80
2023-05-11T21:53:24.760Z,1001.85
2023-05-11T21:58:24.699Z,1001.96
2023-05-11T22:03:24.723Z,1001.88
2023-05-11T22:08:24.566Z,1001.96
2023-05-11T22:13:24.503Z,1001.92
2023-05-11T22:18:24.446Z,1001.92
2023-05-11T22:23:24.410Z,1001.89
2023-05-11T22:28:24.286Z,1001.96
2023-05-11T22:33:24.210Z,1001.88
2023-05-11T22:38:24.145Z,1001.87
2023-05-11T22:43:24.115Z,1001.90
2023-05-11T22:48:24.027Z,1002.00
2023-05-11T22:53:23.965Z,1001.92
2023-05-11T22:58:23.869Z,1001.97
2023-05-11T23:03:24.077Z,1001.97
2023-05-11T23:08:23.745Z,1001.95
2023-05-11T23:13:23.680Z,1001.81
2023-05-11T23:18:23.768Z,1001.75
2023-05-11T23:23:23.543Z,1001.94
2023-05-11T23:28:23.487Z,1001.83
2023-05-11T23:33:23.415Z,1001.93
2023-05-11T23:38:23.348Z,1001.90
2023-05-11T23:43:23.291Z,1001.89
2023-05-11T23:48:23.250Z,1001.92
2023-05-11T23:53:23.153Z,1001.90
2023-05-11T23:58:23.078Z,1001.79
